Ribeirao Bonito, Brazil
Current Conditions -  °F | °C
As of 9:00 AM on Thursday 27 Nov 2014 (Local Time) from SBAQ Reporting Station
Broken Clouds Broken Clouds  
Wind Chill: 75°   Ceiling: 700
Heat Index: 75°   Visibility: 5mi
Dew Point: 73°   Wind: 2mph
Humidity: 94%   Direction: 80°E
Pressure: 29.97"   Gusts: NA
Location:  22.07°S, 48.18°W
Report Text: SBAQ 271100Z 08002KT 8000 BKN007 24/23 Q1015
Loading
Personal Weather Stations






























Interactive Weather Map New forecast layout! Learn more

10-Day Weather Forecast

Advertisements
Track Severe Weather on mobile